Arlington, Vermont
Current Conditions -  °F | °C
As of 9:54 PM on Saturday 25 Oct 2014 (Local Time) from KDDH Reporting Station
Broken Clouds Broken Clouds  
Wind Chill: 53°   Ceiling: 7500
Heat Index: 53°   Visibility: 10mi
Dew Point: 47°   Wind: 6mph
Humidity: 80%   Direction: 210°SSW
Pressure: 29.54"   Gusts: NA
Location:  43.07°N, 73.15°W
Report Text: KDDH 260154Z AUTO 21005KT 10SM SCT055 BKN075 BKN090 12/08 A2954 RMK AO2 RAB15E33 SLP005 P0003 T01170083
Loading
Personal Weather Stations






























Interactive Weather Map New forecast layout! Learn more

10-Day Weather Forecast

Advertisements
Track Severe Weather on mobile